createdAt,value
2022-12-23T00:00:59.575Z,49.63
2022-12-23T00:03:30.872Z,49.20
2022-12-23T00:06:01.882Z,47.03
2022-12-23T00:08:32.066Z,50.97
2022-12-23T00:11:04.012Z,40.65
2022-12-23T00:13:57.808Z,39.10
2022-12-23T00:16:28.154Z,33.33
2022-12-23T00:18:58.356Z,33.75
2022-12-23T00:21:28.465Z,30.27
2022-12-23T00:23:58.586Z,30.30
2022-12-23T00:26:29.065Z,31.00
2022-12-23T00:28:59.274Z,33.13
2022-12-23T00:31:29.428Z,32.80
2022-12-23T00:33:59.648Z,33.45
2022-12-23T00:36:31.188Z,23.15
2022-12-23T00:39:19.895Z,22.48
2022-12-23T00:42:08.401Z,27.70
2022-12-23T00:44:38.613Z,16.83
2022-12-23T00:47:28.799Z,15.55
2022-12-23T00:49:59.143Z,17.02
2022-12-23T00:52:29.208Z,16.73
2022-12-23T00:55:00.307Z,16.23
2022-12-23T00:57:30.363Z,17.67
2022-12-23T01:00:00.506Z,18.13
2022-12-23T01:02:49.213Z,19.15
2022-12-23T01:05:37.693Z,14.52
2022-12-23T01:08:12.084Z,14.93
2022-12-23T01:10:42.224Z,16.02
2022-12-23T01:13:12.327Z,13.13
2022-12-23T01:15:42.464Z,13.95
2022-12-23T01:18:12.662Z,18.50
2022-12-23T01:20:42.843Z,10.18
2022-12-23T01:23:13.075Z,10.48
2022-12-23T01:25:43.212Z,12.45
2022-12-23T01:28:13.348Z,14.45
2022-12-23T01:30:43.439Z,16.88
2022-12-23T01:33:13.636Z,21.13
2022-12-23T01:35:43.681Z,36.05
2022-12-23T01:38:14.264Z,39.17
2022-12-23T01:40:46.013Z,40.92
2022-12-23T01:43:20.311Z,40.80
2022-12-23T01:45:50.560Z,31.85
2022-12-23T01:48:26.884Z,28.83
2022-12-23T01:51:03.159Z,30.92
2022-12-23T01:53:40.966Z,27.52
2022-12-23T01:56:24.085Z,32.08
2022-12-23T01:59:03.353Z,30.92
2022-12-23T02:01:51.987Z,26.27
2022-12-23T02:04:25.037Z,30.60
2022-12-23T02:07:14.019Z,29.48
2022-12-23T02:09:44.130Z,27.08
2022-12-23T02:12:50.714Z,27.58
2022-12-23T02:15:57.252Z,31.25
2022-12-23T02:18:45.683Z,31.90
2022-12-23T02:21:39.366Z,35.22
2022-12-23T02:24:45.040Z,38.03
2022-12-23T02:27:30.312Z,36.58
2022-12-23T02:30:22.234Z,40.78
2022-12-23T02:33:30.228Z,49.97
2022-12-23T02:36:24.226Z,40.28
2022-12-23T02:38:58.238Z,36.20
2022-12-23T02:41:34.039Z,26.30
2022-12-23T02:44:55.091Z,19.98
2022-12-23T02:47:31.268Z,17.15
2022-12-23T02:50:09.463Z,14.57
2022-12-23T02:52:42.073Z,15.95
2022-12-23T02:55:16.914Z,17.05
2022-12-23T02:57:50.061Z,15.98
2022-12-23T03:00:21.549Z,14.20
2022-12-23T03:02:52.020Z,14.95
2022-12-23T03:05:41.685Z,16.15
2022-12-23T03:08:20.811Z,11.65
2022-12-23T03:11:10.822Z,14.88
2022-12-23T03:14:04.573Z,15.90
2022-12-23T03:16:45.857Z,14.88
2022-12-23T03:19:20.907Z,15.90
2022-12-23T03:22:07.452Z,13.65
2022-12-23T03:24:54.591Z,16.00
2022-12-23T03:27:41.424Z,11.02
2022-12-23T03:32:49.888Z,13.48
2022-12-23T03:35:24.601Z,14.02
2022-12-23T03:37:56.391Z,21.90
2022-12-23T03:40:58.748Z,20.48
2022-12-23T03:43:48.329Z,26.85
2022-12-23T03:46:31.002Z,31.42
2022-12-23T03:49:09.317Z,35.15
2022-12-23T03:51:54.105Z,37.65
2022-12-23T03:54:30.961Z,34.95
2022-12-23T03:57:05.132Z,30.00
2022-12-23T03:59:38.821Z,26.52
2022-12-23T04:02:34.411Z,28.80
2022-12-23T04:05:27.209Z,25.17
2022-12-23T04:08:07.168Z,24.55
2022-12-23T04:10:37.806Z,18.23
2022-12-23T04:13:08.638Z,21.50
2022-12-23T04:15:43.919Z,17.15
2022-12-23T04:18:14.176Z,19.70
2022-12-23T04:20:44.562Z,15.85
2022-12-23T04:23:14.725Z,18.55
2022-12-23T04:25:44.874Z,15.45
2022-12-23T04:28:15.034Z,13.27
2022-12-23T04:30:45.123Z,14.50
2022-12-23T04:33:15.311Z,12.02
2022-12-23T04:35:45.516Z,9.32
2022-12-23T04:38:15.766Z,11.75
2022-12-23T04:40:49.069Z,13.98
2022-12-23T04:43:19.260Z,14.27
2022-12-23T04:45:52.977Z,15.60
2022-12-23T04:48:23.133Z,17.63
2022-12-23T04:50:53.686Z,23.77
2022-12-23T04:53:23.906Z,25.90
2022-12-23T04:55:54.110Z,59.50
2022-12-23T04:58:25.277Z,40.10
2022-12-23T05:01:07.738Z,69.63
2022-12-23T05:03:39.164Z,60.53
2022-12-23T05:06:09.393Z,30.85
2022-12-23T05:08:39.597Z,31.67
2022-12-23T05:11:09.756Z,22.95
2022-12-23T05:13:39.903Z,18.13
2022-12-23T05:16:10.101Z,14.32
2022-12-23T05:18:40.262Z,13.45
2022-12-23T05:21:10.425Z,14.10
2022-12-23T05:23:40.653Z,15.18
2022-12-23T05:26:11.494Z,16.45
2022-12-23T05:28:43.121Z,15.43
2022-12-23T05:31:14.087Z,15.63
2022-12-23T05:33:44.469Z,15.68
2022-12-23T05:36:14.699Z,16.08
2022-12-23T05:38:44.893Z,14.05
2022-12-23T05:41:16.817Z,15.38
2022-12-23T05:43:46.936Z,16.17
2022-12-23T05:46:22.663Z,14.93
2022-12-23T05:48:56.274Z,15.57
2022-12-23T05:51:26.424Z,15.88
2022-12-23T05:53:56.559Z,16.75
2022-12-23T05:56:26.730Z,14.80
2022-12-23T05:58:56.880Z,17.83
2022-12-23T06:01:27.060Z,21.55
2022-12-23T06:03:57.488Z,17.95
2022-12-23T06:06:27.776Z,25.48
2022-12-23T06:09:00.102Z,21.15
2022-12-23T06:11:30.653Z,11.95
2022-12-23T06:14:00.880Z,26.88
2022-12-23T06:16:31.011Z,15.32
2022-12-23T06:19:01.293Z,17.02
2022-12-23T06:21:32.088Z,22.40
2022-12-23T06:24:02.225Z,17.70
2022-12-23T06:26:33.752Z,19.85
2022-12-23T06:29:04.681Z,27.98
2022-12-23T06:31:34.917Z,16.17
2022-12-23T06:34:05.396Z,15.68
2022-12-23T06:36:35.574Z,19.73
2022-12-23T06:39:05.710Z,20.15
2022-12-23T06:41:35.837Z,21.58
2022-12-23T06:44:07.037Z,22.92
2022-12-23T06:46:37.234Z,20.55
2022-12-23T06:49:13.133Z,18.13
2022-12-23T06:51:43.806Z,16.65
2022-12-23T06:54:14.093Z,19.42
2022-12-23T06:56:44.251Z,16.55
2022-12-23T06:59:14.513Z,20.50
2022-12-23T07:01:44.783Z,22.45
2022-12-23T07:04:15.036Z,24.50
2022-12-23T07:06:45.247Z,25.27
2022-12-23T07:09:15.803Z,20.33
2022-12-23T07:11:46.186Z,17.48
2022-12-23T07:14:16.364Z,19.80
2022-12-23T07:16:46.580Z,14.63
2022-12-23T07:19:16.783Z,22.83
2022-12-23T07:21:47.051Z,27.80
2022-12-23T07:24:17.638Z,27.95
2022-12-23T07:26:48.423Z,21.52
2022-12-23T07:29:18.613Z,23.05
2022-12-23T07:31:51.302Z,26.33
2022-12-23T07:34:21.546Z,29.23
2022-12-23T07:36:51.608Z,21.67
2022-12-23T07:39:22.094Z,19.63
2022-12-23T07:42:09.097Z,20.33
2022-12-23T07:44:42.611Z,19.80
2022-12-23T07:47:13.148Z,16.80
2022-12-23T07:49:43.361Z,18.77
2022-12-23T07:52:13.407Z,21.95
2022-12-23T07:54:43.818Z,15.57
2022-12-23T07:57:13.971Z,15.93
2022-12-23T07:59:44.041Z,18.23
2022-12-23T08:02:14.205Z,14.50
2022-12-23T08:04:46.551Z,15.38
2022-12-23T08:07:16.873Z,18.83
2022-12-23T08:09:47.067Z,17.02
2022-12-23T08:12:17.189Z,21.33
2022-12-23T08:14:48.610Z,17.30
2022-12-23T08:17:21.627Z,17.52
2022-12-23T08:19:51.825Z,27.40
2022-12-23T08:22:22.026Z,15.05
2022-12-23T08:24:52.841Z,17.25
2022-12-23T08:27:23.038Z,18.25
2022-12-23T08:29:53.150Z,18.13
2022-12-23T08:32:27.245Z,18.17
2022-12-23T08:34:57.807Z,19.38
2022-12-23T08:37:27.984Z,43.45
2022-12-23T08:39:58.193Z,26.67
2022-12-23T08:42:28.407Z,26.08
2022-12-23T08:44:58.943Z,22.35
2022-12-23T08:47:29.156Z,22.35
2022-12-23T08:49:59.371Z,22.08
2022-12-23T08:52:29.542Z,18.73
2022-12-23T08:54:59.677Z,18.35
2022-12-23T08:57:29.728Z,19.00
2022-12-23T08:59:59.914Z,19.75
2022-12-23T09:02:30.087Z,18.58
2022-12-23T09:05:00.512Z,25.20
2022-12-23T09:07:32.014Z,21.33
2022-12-23T09:10:02.562Z,19.73
2022-12-23T09:12:32.731Z,19.65
2022-12-23T09:15:03.032Z,22.13
2022-12-23T09:17:33.484Z,30.98
2022-12-23T09:20:04.141Z,29.15
2022-12-23T09:22:34.968Z,18.90
2022-12-23T09:25:05.725Z,29.15
2022-12-23T09:27:35.905Z,21.77
2022-12-23T09:30:06.751Z,24.70
2022-12-23T09:32:37.619Z,25.05
2022-12-23T09:35:09.116Z,22.70
2022-12-23T09:37:39.270Z,19.63
2022-12-23T09:40:14.650Z,24.08
2022-12-23T09:43:03.903Z,22.42
2022-12-23T09:46:00.348Z,24.60
2022-12-23T09:51:06.137Z,23.20
2022-12-23T09:54:06.254Z,17.67
2022-12-23T09:56:58.180Z,30.00
2022-12-23T09:59:57.307Z,22.23
2022-12-23T10:02:30.896Z,32.28
2022-12-23T10:05:11.544Z,29.52
2022-12-23T10:07:57.643Z,25.80
2022-12-23T10:10:43.577Z,23.42
2022-12-23T10:13:38.526Z,28.43
2022-12-23T10:16:16.010Z,27.73
2022-12-23T10:19:09.096Z,20.40
2022-12-23T10:21:49.230Z,33.28
2022-12-23T10:24:29.383Z,27.10
2022-12-23T10:27:30.109Z,24.63
2022-12-23T10:30:34.357Z,34.85
2022-12-23T10:33:03.300Z,25.58
2022-12-23T10:35:46.885Z,31.08
2022-12-23T10:38:38.568Z,20.77
2022-12-23T10:41:39.406Z,25.70
2022-12-23T10:44:24.662Z,29.40
2022-12-23T10:47:03.251Z,35.85
2022-12-23T10:49:59.933Z,23.55
2022-12-23T10:55:03.002Z,21.08
2022-12-23T10:57:33.274Z,23.15
2022-12-23T11:00:18.719Z,27.75
2022-12-23T11:03:29.309Z,27.02
2022-12-23T11:06:00.582Z,19.92
2022-12-23T11:08:32.139Z,23.35
2022-12-23T11:11:02.518Z,23.67
2022-12-23T11:13:32.602Z,20.77
2022-12-23T11:16:25.561Z,33.72
2022-12-23T11:19:01.612Z,22.73
2022-12-23T11:21:33.507Z,28.40
2022-12-23T11:24:17.931Z,22.35
2022-12-23T11:27:09.800Z,21.77
2022-12-23T11:29:50.908Z,20.75
2022-12-23T11:32:25.363Z,35.88
2022-12-23T11:34:56.663Z,35.45
2022-12-23T11:37:41.221Z,27.70
2022-12-23T11:40:24.535Z,27.95
2022-12-23T11:43:01.246Z,25.05
2022-12-23T11:45:35.857Z,28.30
2022-12-23T11:48:26.361Z,27.42
2022-12-23T11:51:02.060Z,23.80
2022-12-23T11:53:32.547Z,21.85
2022-12-23T11:56:15.004Z,24.42
2022-12-23T11:58:54.100Z,25.10
2022-12-23T12:01:25.524Z,21.70
2022-12-23T12:04:09.327Z,26.10
2022-12-23T12:06:48.404Z,34.35
2022-12-23T12:09:24.201Z,23.27
2022-12-23T12:11:58.409Z,29.42
2022-12-23T12:14:32.417Z,21.35
2022-12-23T12:17:19.637Z,27.17
2022-12-23T12:20:01.806Z,32.90
2022-12-23T12:22:56.645Z,23.50
2022-12-23T12:25:42.591Z,24.95
2022-12-23T12:28:19.680Z,29.63
2022-12-23T12:30:58.824Z,25.17
2022-12-23T12:33:39.885Z,29.77
2022-12-23T12:36:26.113Z,28.10
2022-12-23T12:39:00.096Z,34.60
2022-12-23T12:41:38.402Z,28.33
2022-12-23T12:44:29.218Z,24.15
2022-12-23T12:47:36.093Z,29.58
2022-12-23T12:50:06.813Z,31.35
2022-12-23T12:52:40.789Z,28.42
2022-12-23T12:55:25.541Z,25.95
2022-12-23T12:57:55.816Z,23.40
2022-12-23T13:00:26.119Z,25.38
2022-12-23T13:03:26.589Z,32.55
2022-12-23T13:06:29.050Z,27.08
2022-12-23T13:09:06.479Z,27.77
2022-12-23T13:12:17.645Z,32.45
2022-12-23T13:15:21.510Z,31.88
2022-12-23T13:18:20.847Z,29.77
2022-12-23T13:21:04.600Z,28.73
2022-12-23T13:23:43.989Z,40.15
2022-12-23T13:26:25.718Z,32.60
2022-12-23T13:29:01.585Z,28.65
2022-12-23T13:32:06.723Z,31.02
2022-12-23T13:34:52.081Z,28.63
2022-12-23T13:37:56.463Z,28.58
2022-12-23T13:40:49.947Z,31.42
2022-12-23T13:43:24.016Z,32.35
2022-12-23T13:45:56.093Z,30.17
2022-12-23T13:48:48.563Z,31.27
2022-12-23T13:51:36.368Z,43.08
2022-12-23T13:54:44.889Z,33.53
2022-12-23T13:57:23.887Z,32.50
2022-12-23T14:00:33.349Z,35.08
2022-12-23T14:03:06.082Z,34.85
2022-12-23T14:05:57.596Z,32.95
2022-12-23T14:08:39.554Z,31.17
2022-12-23T14:11:22.115Z,38.22
2022-12-23T14:13:52.307Z,38.90
2022-12-23T14:16:48.030Z,33.28
2022-12-23T14:19:36.245Z,41.17
2022-12-23T14:22:12.060Z,40.35
2022-12-23T14:25:32.807Z,36.20
2022-12-23T14:28:29.219Z,34.78
2022-12-23T14:31:00.149Z,36.88
2022-12-23T14:33:35.045Z,38.40
2022-12-23T14:36:25.724Z,58.00
2022-12-23T14:39:14.204Z,44.20
2022-12-23T14:41:57.530Z,41.03
2022-12-23T14:44:36.115Z,35.80
2022-12-23T14:47:31.278Z,32.90
2022-12-23T14:50:36.980Z,27.25
2022-12-23T14:53:31.228Z,34.05
2022-12-23T14:56:14.957Z,36.80
2022-12-23T14:59:00.034Z,34.45
2022-12-23T15:01:50.378Z,39.55
2022-12-23T15:04:40.787Z,35.47
2022-12-23T15:07:26.817Z,54.50
2022-12-23T15:10:01.138Z,36.92
2022-12-23T15:12:34.971Z,36.25
2022-12-23T15:15:16.626Z,39.92
2022-12-23T15:17:47.364Z,36.25
2022-12-23T15:20:24.287Z,33.70
2022-12-23T15:23:00.844Z,35.38
2022-12-23T15:25:34.064Z,35.75
2022-12-23T15:28:04.772Z,40.85
2022-12-23T15:30:45.076Z,45.33
2022-12-23T15:34:00.576Z,39.63
2022-12-23T15:38:42.313Z,40.42
2022-12-23T15:41:17.415Z,41.65
2022-12-23T15:43:47.645Z,45.40
2022-12-23T15:46:28.639Z,40.50
2022-12-23T15:49:00.283Z,36.15
2022-12-23T15:54:35.434Z,44.17
2022-12-23T15:57:06.093Z,43.15
2022-12-23T15:59:39.625Z,35.40
2022-12-23T16:02:59.556Z,40.58
2022-12-23T16:05:08.199Z,34.42
2022-12-23T16:07:41.336Z,34.10
2022-12-23T16:10:20.504Z,35.70
2022-12-23T16:12:51.977Z,32.97
2022-12-23T16:15:29.329Z,37.13
2022-12-23T16:18:25.562Z,32.83
2022-12-23T16:21:00.686Z,38.35
2022-12-23T16:23:36.738Z,43.60
2022-12-23T16:26:11.313Z,38.65
2022-12-23T16:28:45.309Z,38.40
2022-12-23T16:31:18.328Z,37.97
2022-12-23T16:33:56.191Z,37.33
2022-12-23T16:36:26.363Z,38.08
2022-12-23T16:39:00.447Z,34.92
2022-12-23T16:41:33.753Z,35.47
2022-12-23T16:44:04.605Z,38.97
2022-12-23T16:46:39.507Z,43.63
2022-12-23T16:49:15.994Z,37.67
2022-12-23T16:51:46.767Z,36.80
2022-12-23T16:54:18.779Z,39.03
2022-12-23T16:56:50.162Z,37.13
2022-12-23T16:59:21.274Z,37.22
2022-12-23T17:01:51.646Z,35.03
2022-12-23T17:04:21.847Z,37.38
2022-12-23T17:06:53.163Z,47.08
2022-12-23T17:09:23.373Z,33.50
2022-12-23T17:11:53.960Z,38.80
2022-12-23T17:14:26.126Z,44.78
2022-12-23T17:16:56.392Z,35.65
2022-12-23T17:19:29.236Z,36.83
2022-12-23T17:22:02.853Z,37.40
2022-12-23T17:24:32.971Z,37.28
2022-12-23T17:27:13.701Z,42.63
2022-12-23T17:29:44.327Z,34.65
2022-12-23T17:32:16.910Z,36.45
2022-12-23T17:34:47.187Z,28.33
2022-12-23T17:37:19.822Z,31.40
2022-12-23T17:39:49.966Z,36.17
2022-12-23T17:42:25.867Z,34.60
2022-12-23T17:44:56.339Z,36.05
2022-12-23T17:47:27.763Z,38.63
2022-12-23T17:49:57.864Z,55.83
2022-12-23T17:52:28.092Z,40.28
2022-12-23T17:54:58.243Z,42.03
2022-12-23T17:57:28.395Z,41.53
2022-12-23T17:59:58.472Z,31.23
2022-12-23T18:02:33.292Z,33.95
2022-12-23T18:05:20.004Z,33.85
2022-12-23T18:07:51.868Z,29.20
2022-12-23T18:10:26.239Z,40.28
2022-12-23T18:12:59.939Z,54.58
2022-12-23T18:15:36.815Z,34.30
2022-12-23T18:18:26.433Z,43.10
2022-12-23T18:21:01.258Z,35.75
2022-12-23T18:23:33.882Z,37.88
2022-12-23T18:26:04.653Z,31.20
2022-12-23T18:28:34.870Z,41.30
2022-12-23T18:31:05.086Z,38.85
2022-12-23T18:33:35.257Z,41.38
2022-12-23T18:36:05.654Z,35.53
2022-12-23T18:38:35.823Z,30.00
2022-12-23T18:41:06.076Z,32.75
2022-12-23T18:43:36.149Z,35.80
2022-12-23T18:46:06.555Z,33.95
2022-12-23T18:48:36.738Z,31.23
2022-12-23T18:51:06.939Z,27.60
2022-12-23T18:53:37.117Z,28.08
2022-12-23T18:56:10.081Z,31.42
2022-12-23T18:58:40.318Z,24.83
2022-12-23T19:01:15.897Z,21.27
2022-12-23T19:03:46.442Z,20.60
2022-12-23T19:06:17.070Z,23.13
2022-12-23T19:08:47.335Z,23.10
2022-12-23T19:11:21.241Z,21.40
2022-12-23T19:13:51.829Z,24.25
2022-12-23T19:16:22.242Z,19.77
2022-12-23T19:18:52.500Z,20.80
2022-12-23T19:21:22.993Z,25.45
2022-12-23T19:23:53.200Z,27.70
2022-12-23T19:26:23.408Z,28.27
2022-12-23T19:28:53.577Z,26.13
2022-12-23T19:31:23.846Z,32.47
2022-12-23T19:33:54.047Z,24.02
2022-12-23T19:36:24.699Z,31.05
2022-12-23T19:38:57.156Z,31.50
2022-12-23T19:41:27.288Z,51.60
2022-12-23T19:44:00.600Z,41.05
2022-12-23T19:46:31.227Z,34.03
2022-12-23T19:49:01.393Z,27.77
2022-12-23T19:51:32.105Z,25.83
2022-12-23T19:54:03.297Z,21.80
2022-12-23T19:56:35.357Z,23.85
2022-12-23T19:59:05.492Z,21.30
2022-12-23T20:01:35.801Z,21.70
2022-12-23T20:04:07.017Z,20.33
2022-12-23T20:06:38.534Z,18.08
2022-12-23T20:09:11.451Z,19.15
2022-12-23T20:11:47.533Z,19.92
2022-12-23T20:14:18.957Z,21.48
2022-12-23T20:16:49.551Z,17.70
2022-12-23T20:19:20.075Z,20.63
2022-12-23T20:21:50.315Z,24.38
2022-12-23T20:24:20.535Z,22.23
2022-12-23T20:26:50.791Z,27.40
2022-12-23T20:29:20.950Z,24.85
2022-12-23T20:31:51.146Z,22.92
2022-12-23T20:34:21.382Z,27.02
2022-12-23T20:36:51.506Z,27.50
2022-12-23T20:39:21.741Z,29.00
2022-12-23T20:41:51.892Z,27.77
2022-12-23T20:44:34.652Z,29.42
2022-12-23T20:47:06.558Z,23.30
2022-12-23T20:49:36.809Z,37.33
2022-12-23T20:52:06.962Z,37.40
2022-12-23T20:54:37.105Z,38.20
2022-12-23T20:57:07.322Z,39.20
2022-12-23T20:59:37.428Z,34.40
2022-12-23T21:02:07.628Z,35.53
2022-12-23T21:04:37.865Z,37.00
2022-12-23T21:07:08.460Z,31.25
2022-12-23T21:09:38.628Z,23.10
2022-12-23T21:12:08.727Z,18.63
2022-12-23T21:14:38.955Z,19.08
2022-12-23T21:17:09.116Z,17.80
2022-12-23T21:19:39.328Z,14.20
2022-12-23T21:22:09.480Z,15.15
2022-12-23T21:24:39.621Z,11.13
2022-12-23T21:27:09.807Z,15.35
2022-12-23T21:29:39.952Z,20.48
2022-12-23T21:32:10.211Z,13.00
2022-12-23T21:34:40.301Z,12.82
2022-12-23T21:37:10.476Z,13.23
2022-12-23T21:39:40.660Z,14.35
2022-12-23T21:42:10.789Z,13.32
2022-12-23T21:44:40.949Z,11.93
2022-12-23T21:47:11.247Z,15.05
2022-12-23T21:49:42.540Z,16.45
2022-12-23T21:52:12.769Z,16.55
2022-12-23T21:54:42.947Z,18.30
2022-12-23T21:57:13.284Z,15.32
2022-12-23T21:59:43.491Z,22.02
2022-12-23T22:02:16.927Z,16.92
2022-12-23T22:04:47.241Z,23.30
2022-12-23T22:07:17.462Z,17.80
2022-12-23T22:09:47.663Z,30.70
2022-12-23T22:12:17.808Z,30.85
2022-12-23T22:14:48.050Z,34.13
2022-12-23T22:17:18.185Z,45.92
2022-12-23T22:19:48.418Z,74.45
2022-12-23T22:22:18.555Z,60.90
2022-12-23T22:24:48.684Z,95.47
2022-12-23T22:27:18.874Z,127.93
2022-12-23T22:29:49.011Z,98.47
2022-12-23T22:32:19.125Z,109.47
2022-12-23T22:34:49.248Z,112.25
2022-12-23T22:37:19.383Z,125.70
2022-12-23T22:39:49.567Z,117.35
2022-12-23T22:42:19.666Z,106.80
2022-12-23T22:44:49.849Z,132.52
2022-12-23T22:47:20.621Z,105.22
2022-12-23T22:49:50.938Z,94.55
2022-12-23T22:52:21.105Z,115.78
2022-12-23T22:54:51.217Z,107.65
2022-12-23T22:57:21.395Z,94.88
2022-12-23T22:59:51.754Z,103.75
2022-12-23T23:02:22.091Z,119.13
2022-12-23T23:04:52.617Z,134.93
2022-12-23T23:07:22.869Z,122.38
2022-12-23T23:09:53.002Z,122.72
2022-12-23T23:12:23.168Z,168.23
2022-12-23T23:14:53.449Z,140.85
2022-12-23T23:17:25.822Z,114.88
2022-12-23T23:19:56.256Z,108.15
2022-12-23T23:22:26.479Z,105.55
2022-12-23T23:24:59.695Z,150.48
2022-12-23T23:27:36.022Z,104.78
2022-12-23T23:30:07.020Z,96.97
2022-12-23T23:32:37.148Z,97.00
2022-12-23T23:35:10.844Z,116.57
2022-12-23T23:37:41.353Z,91.78
2022-12-23T23:40:11.729Z,86.63
2022-12-23T23:42:41.930Z,77.95
2022-12-23T23:45:12.139Z,68.97
2022-12-23T23:47:42.246Z,67.75
2022-12-23T23:50:12.385Z,48.35
2022-12-23T23:52:42.462Z,53.50
2022-12-23T23:55:13.028Z,46.85
2022-12-23T23:57:43.137Z,56.58
